sensor_id;sensor_type;location;lat;lon;timestamp;pressure;altitude;pressure_sealevel;temperature;humidity
69842;BME280;57138;51.326;-0.068;2023-05-23T00:01:55;100661.47;;;10.53;63.59
69842;BME280;57138;51.326;-0.068;2023-05-23T00:04:22;100672.34;;;10.51;63.57
69842;BME280;57138;51.326;-0.068;2023-05-23T00:06:51;100652.72;;;10.44;64.47
69842;BME280;57138;51.326;-0.068;2023-05-23T00:09:17;100655.38;;;10.44;64.27
69842;BME280;57138;51.326;-0.068;2023-05-23T00:11:44;100646.56;;;10.35;64.25
69842;BME280;57138;51.326;-0.068;2023-05-23T00:14:12;100653.59;;;10.36;64.45
69842;BME280;57138;51.326;-0.068;2023-05-23T00:16:42;100650.56;;;10.31;64.82
69842;BME280;57138;51.326;-0.068;2023-05-23T00:19:12;100653.94;;;10.33;64.91
69842;BME280;57138;51.326;-0.068;2023-05-23T00:21:39;100647.88;;;10.31;65.33
69842;BME280;57138;51.326;-0.068;2023-05-23T00:24:05;100655.25;;;10.29;65.89
69842;BME280;57138;51.326;-0.068;2023-05-23T00:26:31;100651.25;;;10.25;65.29
69842;BME280;57138;51.326;-0.068;2023-05-23T00:28:57;100661.13;;;10.24;66.23
69842;BME280;57138;51.326;-0.068;2023-05-23T00:31:23;100647.47;;;10.19;67.21
69842;BME280;57138;51.326;-0.068;2023-05-23T00:33:49;100646.16;;;10.15;66.74
69842;BME280;57138;51.326;-0.068;2023-05-23T00:36:15;100654.34;;;10.14;67.18
69842;BME280;57138;51.326;-0.068;2023-05-23T00:38:40;100658.00;;;10.13;67.58
69842;BME280;57138;51.326;-0.068;2023-05-23T00:41:06;100648.00;;;10.06;68.66
69842;BME280;57138;51.326;-0.068;2023-05-23T00:43:31;100653.34;;;10.06;69.02
69842;BME280;57138;51.326;-0.068;2023-05-23T00:45:58;100650.84;;;10.05;69.06
69842;BME280;57138;51.326;-0.068;2023-05-23T00:48:25;100649.69;;;10.07;69.24
69842;BME280;57138;51.326;-0.068;2023-05-23T00:50:52;100657.06;;;10.05;69.43
69842;BME280;57138;51.326;-0.068;2023-05-23T00:53:18;100648.75;;;10.00;70.51
69842;BME280;57138;51.326;-0.068;2023-05-23T00:55:44;100638.41;;;9.97;71.34
69842;BME280;57138;51.326;-0.068;2023-05-23T00:58:09;100642.72;;;9.98;71.58
69842;BME280;57138;51.326;-0.068;2023-05-23T01:00:35;100628.75;;;9.88;72.69
69842;BME280;57138;51.326;-0.068;2023-05-23T01:03:02;100626.56;;;9.92;71.96
69842;BME280;57138;51.326;-0.068;2023-05-23T01:05:29;100631.44;;;9.88;73.11
69842;BME280;57138;51.326;-0.068;2023-05-23T01:07:54;100635.75;;;9.89;72.43
69842;BME280;57138;51.326;-0.068;2023-05-23T01:10:23;100626.78;;;9.82;72.85
69842;BME280;57138;51.326;-0.068;2023-05-23T01:13:15;100638.28;;;9.82;72.88
69842;BME280;57138;51.326;-0.068;2023-05-23T01:18:50;100641.47;;;9.78;73.18
69842;BME280;57138;51.326;-0.068;2023-05-23T01:21:22;100642.81;;;9.74;73.97
69842;BME280;57138;51.326;-0.068;2023-05-23T01:24:22;100656.50;;;9.70;73.43
69842;BME280;57138;51.326;-0.068;2023-05-23T01:27:07;100653.53;;;9.65;74.46
69842;BME280;57138;51.326;-0.068;2023-05-23T01:29:37;100650.22;;;9.63;74.13
69842;BME280;57138;51.326;-0.068;2023-05-23T01:32:06;100644.88;;;9.55;74.97
69842;BME280;57138;51.326;-0.068;2023-05-23T01:34:35;100651.06;;;9.56;74.46
69842;BME280;57138;51.326;-0.068;2023-05-23T01:37:00;100651.56;;;9.51;74.46
69842;BME280;57138;51.326;-0.068;2023-05-23T01:39:26;100648.22;;;9.49;75.63
69842;BME280;57138;51.326;-0.068;2023-05-23T01:41:52;100654.59;;;9.48;75.69
69842;BME280;57138;51.326;-0.068;2023-05-23T01:44:19;100653.25;;;9.44;74.82
69842;BME280;57138;51.326;-0.068;2023-05-23T01:46:45;100649.28;;;9.40;74.44
69842;BME280;57138;51.326;-0.068;2023-05-23T01:49:12;100654.44;;;9.41;74.64
69842;BME280;57138;51.326;-0.068;2023-05-23T01:51:39;100652.28;;;9.37;75.40
69842;BME280;57138;51.326;-0.068;2023-05-23T01:54:08;100650.13;;;9.32;75.36
69842;BME280;57138;51.326;-0.068;2023-05-23T01:56:33;100655.47;;;9.32;75.02
69842;BME280;57138;51.326;-0.068;2023-05-23T01:58:59;100648.97;;;9.26;75.77
69842;BME280;57138;51.326;-0.068;2023-05-23T02:01:26;100643.31;;;9.21;75.99
69842;BME280;57138;51.326;-0.068;2023-05-23T02:03:52;100658.28;;;9.22;76.43
69842;BME280;57138;51.326;-0.068;2023-05-23T02:06:17;100662.63;;;9.23;76.02
69842;BME280;57138;51.326;-0.068;2023-05-23T02:08:42;100673.66;;;9.20;76.15
69842;BME280;57138;51.326;-0.068;2023-05-23T02:11:08;100681.16;;;9.16;76.66
69842;BME280;57138;51.326;-0.068;2023-05-23T02:13:35;100689.00;;;9.18;77.18
69842;BME280;57138;51.326;-0.068;2023-05-23T02:16:00;100690.50;;;9.12;77.35
69842;BME280;57138;51.326;-0.068;2023-05-23T02:18:26;100664.81;;;9.03;77.21
69842;BME280;57138;51.326;-0.068;2023-05-23T02:20:53;100686.47;;;9.08;77.75
69842;BME280;57138;51.326;-0.068;2023-05-23T02:23:20;100680.31;;;9.08;77.88
69842;BME280;57138;51.326;-0.068;2023-05-23T02:25:45;100684.66;;;9.09;77.09
69842;BME280;57138;51.326;-0.068;2023-05-23T02:28:11;100689.66;;;9.04;77.43
69842;BME280;57138;51.326;-0.068;2023-05-23T02:30:37;100697.31;;;8.98;77.84
69842;BME280;57138;51.326;-0.068;2023-05-23T02:33:06;100695.16;;;8.94;78.83
69842;BME280;57138;51.326;-0.068;2023-05-23T02:35:32;100680.34;;;8.91;78.62
69842;BME280;57138;51.326;-0.068;2023-05-23T02:37:59;100693.50;;;8.93;78.71
69842;BME280;57138;51.326;-0.068;2023-05-23T02:40:24;100696.34;;;8.91;78.96
69842;BME280;57138;51.326;-0.068;2023-05-23T02:42:49;100695.66;;;8.89;79.39
69842;BME280;57138;51.326;-0.068;2023-05-23T02:45:16;100706.16;;;8.91;79.17
69842;BME280;57138;51.326;-0.068;2023-05-23T02:47:41;100711.00;;;8.87;80.11
69842;BME280;57138;51.326;-0.068;2023-05-23T02:50:07;100702.34;;;8.85;80.67
69842;BME280;57138;51.326;-0.068;2023-05-23T02:52:33;100703.66;;;8.81;80.94
69842;BME280;57138;51.326;-0.068;2023-05-23T02:54:58;100710.66;;;8.82;81.16
69842;BME280;57138;51.326;-0.068;2023-05-23T02:57:23;100707.47;;;8.78;80.72
69842;BME280;57138;51.326;-0.068;2023-05-23T02:59:49;100713.66;;;8.79;80.99
69842;BME280;57138;51.326;-0.068;2023-05-23T03:02:14;100706.00;;;8.76;81.15
69842;BME280;57138;51.326;-0.068;2023-05-23T03:04:42;100708.50;;;8.77;81.41
69842;BME280;57138;51.326;-0.068;2023-05-23T03:07:07;100706.16;;;8.74;81.40
69842;BME280;57138;51.326;-0.068;2023-05-23T03:09:35;100701.31;;;8.70;81.16
69842;BME280;57138;51.326;-0.068;2023-05-23T03:12:04;100697.94;;;8.68;81.19
69842;BME280;57138;51.326;-0.068;2023-05-23T03:14:30;100704.31;;;8.67;81.69
69842;BME280;57138;51.326;-0.068;2023-05-23T03:16:55;100711.28;;;8.68;83.07
69842;BME280;57138;51.326;-0.068;2023-05-23T03:19:20;100701.63;;;8.67;81.94
69842;BME280;57138;51.326;-0.068;2023-05-23T03:21:49;100706.97;;;8.67;83.14
69842;BME280;57138;51.326;-0.068;2023-05-23T03:24:16;100699.31;;;8.63;82.15
69842;BME280;57138;51.326;-0.068;2023-05-23T03:26:41;100705.94;;;8.68;82.23
69842;BME280;57138;51.326;-0.068;2023-05-23T03:29:07;100708.63;;;8.68;83.24
69842;BME280;57138;51.326;-0.068;2023-05-23T03:31:35;100694.63;;;8.66;83.30
69842;BME280;57138;51.326;-0.068;2023-05-23T03:34:01;100697.28;;;8.66;83.47
69842;BME280;57138;51.326;-0.068;2023-05-23T03:36:26;100701.97;;;8.72;82.88
69842;BME280;57138;51.326;-0.068;2023-05-23T03:38:53;100705.81;;;8.77;83.47
69842;BME280;57138;51.326;-0.068;2023-05-23T03:41:18;100687.97;;;8.70;84.75
69842;BME280;57138;51.326;-0.068;2023-05-23T03:43:44;100711.66;;;8.81;84.00
69842;BME280;57138;51.326;-0.068;2023-05-23T03:46:09;100715.31;;;8.80;83.88
69842;BME280;57138;51.326;-0.068;2023-05-23T03:48:35;100711.66;;;8.81;84.75
69842;BME280;57138;51.326;-0.068;2023-05-23T03:51:00;100722.81;;;8.85;84.14
69842;BME280;57138;51.326;-0.068;2023-05-23T03:53:26;100717.63;;;8.83;83.89
69842;BME280;57138;51.326;-0.068;2023-05-23T03:55:51;100730.31;;;8.89;83.52
69842;BME280;57138;51.326;-0.068;2023-05-23T03:58:18;100727.47;;;8.91;85.24
69842;BME280;57138;51.326;-0.068;2023-05-23T04:00:45;100729.00;;;8.93;84.36
69842;BME280;57138;51.326;-0.068;2023-05-23T04:03:11;100732.50;;;8.94;84.13
69842;BME280;57138;51.326;-0.068;2023-05-23T04:05:41;100734.16;;;8.95;84.69
69842;BME280;57138;51.326;-0.068;2023-05-23T04:08:07;100729.66;;;8.95;84.32
69842;BME280;57138;51.326;-0.068;2023-05-23T04:10:32;100727.00;;;8.95;84.63
69842;BME280;57138;51.326;-0.068;2023-05-23T04:12:57;100727.66;;;8.97;83.95
69842;BME280;57138;51.326;-0.068;2023-05-23T04:15:23;100721.66;;;8.95;84.38
69842;BME280;57138;51.326;-0.068;2023-05-23T04:17:49;100719.16;;;8.94;84.12
69842;BME280;57138;51.326;-0.068;2023-05-23T04:20:16;100723.66;;;8.93;84.57
69842;BME280;57138;51.326;-0.068;2023-05-23T04:22:41;100714.84;;;8.93;84.19
69842;BME280;57138;51.326;-0.068;2023-05-23T04:25:07;100723.00;;;8.91;84.50
69842;BME280;57138;51.326;-0.068;2023-05-23T04:27:34;100725.84;;;8.90;84.53
69842;BME280;57138;51.326;-0.068;2023-05-23T04:29:59;100730.31;;;8.89;84.58
69842;BME280;57138;51.326;-0.068;2023-05-23T04:32:25;100722.97;;;8.83;84.73
69842;BME280;57138;51.326;-0.068;2023-05-23T04:34:50;100724.81;;;8.82;85.80
69842;BME280;57138;51.326;-0.068;2023-05-23T04:37:18;100723.63;;;8.77;85.72
69842;BME280;57138;51.326;-0.068;2023-05-23T04:39:47;100728.47;;;8.81;86.15
69842;BME280;57138;51.326;-0.068;2023-05-23T04:42:12;100729.31;;;8.82;85.85
69842;BME280;57138;51.326;-0.068;2023-05-23T04:44:38;100732.31;;;8.87;85.58
69842;BME280;57138;51.326;-0.068;2023-05-23T04:47:03;100737.97;;;8.84;85.47
69842;BME280;57138;51.326;-0.068;2023-05-23T04:49:29;100750.81;;;8.89;85.66
69842;BME280;57138;51.326;-0.068;2023-05-23T04:51:58;100748.50;;;8.86;85.95
69842;BME280;57138;51.326;-0.068;2023-05-23T04:54:23;100748.31;;;8.87;86.14
69842;BME280;57138;51.326;-0.068;2023-05-23T04:56:49;100755.00;;;8.99;85.93
69842;BME280;57138;51.326;-0.068;2023-05-23T04:59:14;100744.66;;;9.05;85.98
69842;BME280;57138;51.326;-0.068;2023-05-23T05:01:40;100757.00;;;9.14;85.95
69842;BME280;57138;51.326;-0.068;2023-05-23T05:04:05;100757.69;;;9.24;86.21
69842;BME280;57138;51.326;-0.068;2023-05-23T05:06:31;100762.69;;;9.35;85.64
69842;BME280;57138;51.326;-0.068;2023-05-23T05:08:56;100757.66;;;9.49;85.94
69842;BME280;57138;51.326;-0.068;2023-05-23T05:11:22;100777.03;;;9.59;85.89
69842;BME280;57138;51.326;-0.068;2023-05-23T05:13:47;100777.00;;;9.67;85.65
69842;BME280;57138;51.326;-0.068;2023-05-23T05:16:12;100777.66;;;9.78;84.88
69842;BME280;57138;51.326;-0.068;2023-05-23T05:18:38;100773.31;;;9.85;84.78
69842;BME280;57138;51.326;-0.068;2023-05-23T05:21:04;100785.84;;;9.93;84.13
69842;BME280;57138;51.326;-0.068;2023-05-23T05:23:30;100786.31;;;9.96;83.76
69842;BME280;57138;51.326;-0.068;2023-05-23T05:25:56;100784.31;;;9.98;83.43
69842;BME280;57138;51.326;-0.068;2023-05-23T05:28:21;100792.63;;;10.03;83.05
69842;BME280;57138;51.326;-0.068;2023-05-23T05:30:47;100800.66;;;10.12;83.26
69842;BME280;57138;51.326;-0.068;2023-05-23T05:33:18;100796.25;;;10.19;82.30
69842;BME280;57138;51.326;-0.068;2023-05-23T05:35:44;100789.91;;;10.20;82.18
69842;BME280;57138;51.326;-0.068;2023-05-23T05:38:09;100786.56;;;10.26;82.04
69842;BME280;57138;51.326;-0.068;2023-05-23T05:40:35;100782.22;;;10.25;81.59
69842;BME280;57138;51.326;-0.068;2023-05-23T05:43:00;100784.19;;;10.31;81.41
69842;BME280;57138;51.326;-0.068;2023-05-23T05:45:26;100781.53;;;10.39;80.92
69842;BME280;57138;51.326;-0.068;2023-05-23T05:47:51;100772.50;;;10.40;80.08
69842;BME280;57138;51.326;-0.068;2023-05-23T05:50:20;100777.16;;;10.47;80.68
69842;BME280;57138;51.326;-0.068;2023-05-23T05:52:45;100796.50;;;10.57;80.07
69842;BME280;57138;51.326;-0.068;2023-05-23T05:55:10;100779.78;;;10.55;79.29
69842;BME280;57138;51.326;-0.068;2023-05-23T05:57:37;100772.78;;;10.54;79.01
69842;BME280;57138;51.326;-0.068;2023-05-23T06:00:06;100793.81;;;10.57;78.48
69842;BME280;57138;51.326;-0.068;2023-05-23T06:02:37;100783.81;;;10.51;78.90
69842;BME280;57138;51.326;-0.068;2023-05-23T06:05:03;100786.09;;;10.62;78.63
69842;BME280;57138;51.326;-0.068;2023-05-23T06:07:29;100792.09;;;10.64;78.05
69842;BME280;57138;51.326;-0.068;2023-05-23T06:09:56;100805.16;;;10.59;77.22
69842;BME280;57138;51.326;-0.068;2023-05-23T06:12:21;100800.66;;;10.59;77.56
69842;BME280;57138;51.326;-0.068;2023-05-23T06:14:47;100809.19;;;10.63;76.75
69842;BME280;57138;51.326;-0.068;2023-05-23T06:17:12;100807.63;;;10.69;76.62
69842;BME280;57138;51.326;-0.068;2023-05-23T06:19:37;100806.81;;;10.68;76.19
69842;BME280;57138;51.326;-0.068;2023-05-23T06:22:03;100806.56;;;10.78;76.32
69842;BME280;57138;51.326;-0.068;2023-05-23T06:24:28;100803.72;;;10.79;76.10
69842;BME280;57138;51.326;-0.068;2023-05-23T06:26:55;100807.31;;;10.95;76.35
69842;BME280;57138;51.326;-0.068;2023-05-23T06:29:21;100810.91;;;11.10;76.11
69842;BME280;57138;51.326;-0.068;2023-05-23T06:31:46;100814.47;;;11.26;75.20
69842;BME280;57138;51.326;-0.068;2023-05-23T06:34:11;100806.38;;;11.34;74.56
69842;BME280;57138;51.326;-0.068;2023-05-23T06:36:37;100814.47;;;11.49;73.83
69842;BME280;57138;51.326;-0.068;2023-05-23T06:39:03;100808.75;;;11.52;73.22
69842;BME280;57138;51.326;-0.068;2023-05-23T06:41:29;100814.50;;;11.64;73.49
69842;BME280;57138;51.326;-0.068;2023-05-23T06:43:54;100810.91;;;11.72;72.79
69842;BME280;57138;51.326;-0.068;2023-05-23T06:46:19;100805.88;;;11.77;72.49
69842;BME280;57138;51.326;-0.068;2023-05-23T06:48:45;100804.97;;;11.84;72.45
69842;BME280;57138;51.326;-0.068;2023-05-23T06:51:11;100800.59;;;11.83;72.25
69842;BME280;57138;51.326;-0.068;2023-05-23T06:53:38;100806.91;;;11.91;71.32
69842;BME280;57138;51.326;-0.068;2023-05-23T06:56:05;100809.91;;;11.96;70.79
69842;BME280;57138;51.326;-0.068;2023-05-23T06:58:30;100812.84;;;12.01;70.78
69842;BME280;57138;51.326;-0.068;2023-05-23T07:00:56;100815.84;;;12.06;69.71
69842;BME280;57138;51.326;-0.068;2023-05-23T07:03:21;100807.34;;;12.17;70.53
69842;BME280;57138;51.326;-0.068;2023-05-23T07:05:46;100803.81;;;12.32;70.28
69842;BME280;57138;51.326;-0.068;2023-05-23T07:08:12;100802.31;;;12.44;68.72
69842;BME280;57138;51.326;-0.068;2023-05-23T07:10:37;100808.31;;;12.61;67.95
69842;BME280;57138;51.326;-0.068;2023-05-23T07:13:05;100812.88;;;12.82;66.66
69842;BME280;57138;51.326;-0.068;2023-05-23T07:15:30;100806.13;;;12.86;66.39
69842;BME280;57138;51.326;-0.068;2023-05-23T07:17:56;100802.06;;;12.90;66.73
69842;BME280;57138;51.326;-0.068;2023-05-23T07:20:23;100809.59;;;13.02;66.77
69842;BME280;57138;51.326;-0.068;2023-05-23T07:22:48;100800.66;;;13.16;66.64
69842;BME280;57138;51.326;-0.068;2023-05-23T07:25:16;100806.56;;;13.26;66.01
69842;BME280;57138;51.326;-0.068;2023-05-23T07:27:41;100818.94;;;13.27;64.18
69842;BME280;57138;51.326;-0.068;2023-05-23T07:30:07;100813.25;;;13.16;63.19
69842;BME280;57138;51.326;-0.068;2023-05-23T07:32:37;100817.09;;;13.06;64.14
69842;BME280;57138;51.326;-0.068;2023-05-23T07:35:03;100806.84;;;12.95;64.35
69842;BME280;57138;51.326;-0.068;2023-05-23T07:37:29;100808.69;;;12.94;63.46
69842;BME280;57138;51.326;-0.068;2023-05-23T07:39:55;100810.91;;;13.06;63.44
69842;BME280;57138;51.326;-0.068;2023-05-23T07:42:24;100813.47;;;13.14;63.71
69842;BME280;57138;51.326;-0.068;2023-05-23T07:44:58;100812.84;;;13.34;62.60
69842;BME280;57138;51.326;-0.068;2023-05-23T07:47:27;100801.06;;;13.56;62.73
69842;BME280;57138;51.326;-0.068;2023-05-23T07:49:56;100799.50;;;13.69;60.36
69842;BME280;57138;51.326;-0.068;2023-05-23T07:52:34;100801.56;;;13.66;60.01
69842;BME280;57138;51.326;-0.068;2023-05-23T07:55:01;100803.31;;;13.53;58.88
69842;BME280;57138;51.326;-0.068;2023-05-23T07:57:29;100805.44;;;13.36;59.68
69842;BME280;57138;51.326;-0.068;2023-05-23T07:59:55;100814.41;;;13.28;60.01
69842;BME280;57138;51.326;-0.068;2023-05-23T08:02:21;100810.00;;;13.20;59.84
69842;BME280;57138;51.326;-0.068;2023-05-23T08:04:47;100799.78;;;13.09;59.55
69842;BME280;57138;51.326;-0.068;2023-05-23T08:07:15;100812.31;;;13.23;60.05
69842;BME280;57138;51.326;-0.068;2023-05-23T08:09:40;100815.44;;;13.27;57.84
69842;BME280;57138;51.326;-0.068;2023-05-23T08:12:08;100808.66;;;13.31;58.69
69842;BME280;57138;51.326;-0.068;2023-05-23T08:14:34;100822.81;;;13.40;57.76
69842;BME280;57138;51.326;-0.068;2023-05-23T08:16:59;100814.66;;;13.48;57.86
69842;BME280;57138;51.326;-0.068;2023-05-23T08:19:25;100817.44;;;13.61;57.80
69842;BME280;57138;51.326;-0.068;2023-05-23T08:21:50;100804.47;;;13.65;57.74
69842;BME280;57138;51.326;-0.068;2023-05-23T08:24:18;100815.50;;;13.77;58.07
69842;BME280;57138;51.326;-0.068;2023-05-23T08:26:43;100819.94;;;13.91;58.75
69842;BME280;57138;51.326;-0.068;2023-05-23T08:29:11;100818.38;;;14.03;58.05
69842;BME280;57138;51.326;-0.068;2023-05-23T08:31:37;100819.25;;;14.11;57.50
69842;BME280;57138;51.326;-0.068;2023-05-23T08:34:03;100821.34;;;14.15;57.17
69842;BME280;57138;51.326;-0.068;2023-05-23T08:36:28;100832.13;;;14.22;57.12
69842;BME280;57138;51.326;-0.068;2023-05-23T08:38:56;100822.25;;;14.29;57.15
69842;BME280;57138;51.326;-0.068;2023-05-23T08:41:22;100820.22;;;14.38;57.08
69842;BME280;57138;51.326;-0.068;2023-05-23T08:43:48;100828.19;;;14.53;57.45
69842;BME280;57138;51.326;-0.068;2023-05-23T08:46:15;100824.13;;;14.64;56.79
69842;BME280;57138;51.326;-0.068;2023-05-23T08:48:42;100826.63;;;14.72;55.60
69842;BME280;57138;51.326;-0.068;2023-05-23T08:51:12;100823.34;;;14.83;54.50
69842;BME280;57138;51.326;-0.068;2023-05-23T08:53:42;100822.13;;;14.86;53.67
69842;BME280;57138;51.326;-0.068;2023-05-23T08:56:11;100828.38;;;14.93;54.95
69842;BME280;57138;51.326;-0.068;2023-05-23T08:58:38;100832.97;;;15.06;55.02
69842;BME280;57138;51.326;-0.068;2023-05-23T09:01:04;100821.78;;;15.09;53.95
69842;BME280;57138;51.326;-0.068;2023-05-23T09:03:30;100820.97;;;15.08;54.25
69842;BME280;57138;51.326;-0.068;2023-05-23T09:05:55;100823.88;;;15.14;54.34
69842;BME280;57138;51.326;-0.068;2023-05-23T09:08:24;100842.09;;;15.12;50.97
69842;BME280;57138;51.326;-0.068;2023-05-23T09:10:50;100827.53;;;14.92;51.97
69842;BME280;57138;51.326;-0.068;2023-05-23T09:13:16;100834.38;;;14.88;52.43
69842;BME280;57138;51.326;-0.068;2023-05-23T09:16:01;100822.94;;;14.86;52.27
69842;BME280;57138;51.326;-0.068;2023-05-23T09:18:38;100827.50;;;14.86;53.18
69842;BME280;57138;51.326;-0.068;2023-05-23T09:21:04;100823.59;;;14.88;52.13
69842;BME280;57138;51.326;-0.068;2023-05-23T09:23:31;100834.09;;;14.77;51.99
69842;BME280;57138;51.326;-0.068;2023-05-23T09:26:03;100820.81;;;14.68;52.97
69842;BME280;57138;51.326;-0.068;2023-05-23T09:28:29;100824.53;;;14.67;52.49
69842;BME280;57138;51.326;-0.068;2023-05-23T09:31:03;100830.31;;;14.64;50.78
69842;BME280;57138;51.326;-0.068;2023-05-23T09:33:42;100824.13;;;14.64;51.90
69842;BME280;57138;51.326;-0.068;2023-05-23T09:36:11;100825.78;;;14.65;51.89
69842;BME280;57138;51.326;-0.068;2023-05-23T09:38:42;100820.59;;;14.63;52.14
69842;BME280;57138;51.326;-0.068;2023-05-23T09:41:08;100832.84;;;14.72;52.29
69842;BME280;57138;51.326;-0.068;2023-05-23T09:43:37;100827.28;;;14.74;52.15
69842;BME280;57138;51.326;-0.068;2023-05-23T09:46:08;100828.28;;;14.66;51.10
69842;BME280;57138;51.326;-0.068;2023-05-23T09:48:33;100834.06;;;14.63;51.50
69842;BME280;57138;51.326;-0.068;2023-05-23T09:51:03;100833.41;;;14.61;51.72
69842;BME280;57138;51.326;-0.068;2023-05-23T09:53:32;100838.97;;;14.60;52.07
69842;BME280;57138;51.326;-0.068;2023-05-23T09:56:04;100842.13;;;14.63;51.32
69842;BME280;57138;51.326;-0.068;2023-05-23T09:58:31;100849.41;;;14.69;52.18
69842;BME280;57138;51.326;-0.068;2023-05-23T10:00:58;100837.00;;;14.75;52.75
69842;BME280;57138;51.326;-0.068;2023-05-23T10:03:34;100845.34;;;14.87;52.45
69842;BME280;57138;51.326;-0.068;2023-05-23T10:06:09;100848.25;;;14.92;52.38
69842;BME280;57138;51.326;-0.068;2023-05-23T10:08:43;100853.84;;;14.97;52.43
69842;BME280;57138;51.326;-0.068;2023-05-23T10:13:43;100848.50;;;15.04;51.09
69842;BME280;57138;51.326;-0.068;2023-05-23T10:19:30;100851.81;;;15.13;49.03
69842;BME280;57138;51.326;-0.068;2023-05-23T10:22:00;100859.94;;;15.26;47.96
69842;BME280;57138;51.326;-0.068;2023-05-23T10:24:30;100858.72;;;15.35;48.04
69842;BME280;57138;51.326;-0.068;2023-05-23T10:26:57;100857.06;;;15.41;48.28
69842;BME280;57138;51.326;-0.068;2023-05-23T10:29:24;100855.84;;;15.50;47.55
69842;BME280;57138;51.326;-0.068;2023-05-23T10:31:51;100852.97;;;15.58;47.88
69842;BME280;57138;51.326;-0.068;2023-05-23T10:34:27;100848.41;;;15.72;48.70
69842;BME280;57138;51.326;-0.068;2023-05-23T10:37:02;100844.28;;;15.90;47.63
69842;BME280;57138;51.326;-0.068;2023-05-23T10:42:27;100831.59;;;15.97;47.74
69842;BME280;57138;51.326;-0.068;2023-05-23T10:47:40;100839.63;;;16.37;45.57
69842;BME280;57138;51.326;-0.068;2023-05-23T10:50:06;100840.88;;;16.41;44.57
69842;BME280;57138;51.326;-0.068;2023-05-23T10:52:39;100833.59;;;16.42;45.70
69842;BME280;57138;51.326;-0.068;2023-05-23T10:55:13;100841.03;;;16.60;46.37
69842;BME280;57138;51.326;-0.068;2023-05-23T10:57:39;100829.97;;;16.68;45.96
69842;BME280;57138;51.326;-0.068;2023-05-23T11:00:15;100839.44;;;16.91;45.67
69842;BME280;57138;51.326;-0.068;2023-05-23T11:02:53;100841.50;;;16.95;44.54
69842;BME280;57138;51.326;-0.068;2023-05-23T11:05:23;100846.09;;;16.95;45.29
69842;BME280;57138;51.326;-0.068;2023-05-23T11:08:12;100844.41;;;16.94;44.31
69842;BME280;57138;51.326;-0.068;2023-05-23T11:10:58;100832.78;;;16.93;45.35
69842;BME280;57138;51.326;-0.068;2023-05-23T11:13:24;100843.13;;;17.03;45.68
69842;BME280;57138;51.326;-0.068;2023-05-23T11:15:50;100846.81;;;17.15;45.59
69842;BME280;57138;51.326;-0.068;2023-05-23T11:18:25;100846.78;;;17.22;44.00
69842;BME280;57138;51.326;-0.068;2023-05-23T11:20:51;100838.78;;;17.34;44.71
69842;BME280;57138;51.326;-0.068;2023-05-23T11:23:17;100842.50;;;17.39;43.69
69842;BME280;57138;51.326;-0.068;2023-05-23T11:25:49;100847.00;;;17.52;45.73
69842;BME280;57138;51.326;-0.068;2023-05-23T11:28:14;100839.38;;;17.68;45.17
69842;BME280;57138;51.326;-0.068;2023-05-23T11:30:42;100844.03;;;17.86;43.38
69842;BME280;57138;51.326;-0.068;2023-05-23T11:33:08;100860.81;;;17.94;43.48
69842;BME280;57138;51.326;-0.068;2023-05-23T11:38:07;100844.69;;;17.81;43.90
69842;BME280;57138;51.326;-0.068;2023-05-23T11:40:35;100839.28;;;17.81;44.65
69842;BME280;57138;51.326;-0.068;2023-05-23T11:43:03;100831.00;;;17.76;43.83
69842;BME280;57138;51.326;-0.068;2023-05-23T11:45:30;100831.44;;;17.73;43.74
69842;BME280;57138;51.326;-0.068;2023-05-23T11:48:09;100841.50;;;17.66;43.09
69842;BME280;57138;51.326;-0.068;2023-05-23T11:50:52;100841.75;;;17.57;43.69
69842;BME280;57138;51.326;-0.068;2023-05-23T11:53:20;100832.44;;;17.53;44.76
69842;BME280;57138;51.326;-0.068;2023-05-23T11:55:53;100850.25;;;17.61;44.25
69842;BME280;57138;51.326;-0.068;2023-05-23T11:58:20;100854.38;;;17.64;44.72
69842;BME280;57138;51.326;-0.068;2023-05-23T12:00:46;100840.88;;;17.64;44.34
69842;BME280;57138;51.326;-0.068;2023-05-23T12:03:11;100842.25;;;17.73;44.26
69842;BME280;57138;51.326;-0.068;2023-05-23T12:05:37;100840.91;;;17.89;43.79
69842;BME280;57138;51.326;-0.068;2023-05-23T12:08:02;100834.09;;;18.05;44.17
69842;BME280;57138;51.326;-0.068;2023-05-23T12:10:28;100843.16;;;18.17;43.10
69842;BME280;57138;51.326;-0.068;2023-05-23T12:12:53;100841.81;;;18.26;42.40
69842;BME280;57138;51.326;-0.068;2023-05-23T12:15:24;100835.63;;;18.38;42.66
69842;BME280;57138;51.326;-0.068;2023-05-23T12:17:52;100842.19;;;18.48;42.76
69842;BME280;57138;51.326;-0.068;2023-05-23T12:20:19;100833.97;;;18.55;42.86
69842;BME280;57138;51.326;-0.068;2023-05-23T12:22:45;100824.16;;;18.73;42.50
69842;BME280;57138;51.326;-0.068;2023-05-23T12:25:13;100833.84;;;18.87;41.07
69842;BME280;57138;51.326;-0.068;2023-05-23T12:27:40;100832.59;;;18.83;41.93
69842;BME280;57138;51.326;-0.068;2023-05-23T12:30:09;100833.63;;;18.82;42.22
69842;BME280;57138;51.326;-0.068;2023-05-23T12:32:39;100840.59;;;18.78;41.99
69842;BME280;57138;51.326;-0.068;2023-05-23T12:35:07;100831.84;;;18.76;42.20
69842;BME280;57138;51.326;-0.068;2023-05-23T12:37:33;100834.28;;;18.65;41.84
69842;BME280;57138;51.326;-0.068;2023-05-23T12:40:14;100833.66;;;18.63;42.93
69842;BME280;57138;51.326;-0.068;2023-05-23T12:42:54;100827.34;;;18.69;43.41
69842;BME280;57138;51.326;-0.068;2023-05-23T12:45:30;100837.56;;;18.67;43.08
69842;BME280;57138;51.326;-0.068;2023-05-23T12:47:56;100826.16;;;18.65;42.95
69842;BME280;57138;51.326;-0.068;2023-05-23T12:50:21;100828.25;;;18.45;42.42
69842;BME280;57138;51.326;-0.068;2023-05-23T12:52:50;100819.91;;;18.09;42.43
69842;BME280;57138;51.326;-0.068;2023-05-23T12:55:16;100821.75;;;17.90;43.20
69842;BME280;57138;51.326;-0.068;2023-05-23T12:57:42;100813.34;;;17.99;44.77
69842;BME280;57138;51.326;-0.068;2023-05-23T13:00:11;100816.38;;;18.27;45.94
69842;BME280;57138;51.326;-0.068;2023-05-23T13:02:37;100826.75;;;18.67;44.08